sensor_id;sensor_type;location;lat;lon;timestamp;pressure;altitude;pressure_sealevel;temperature;humidity
41254;BME280;26987;59.928;30.306;2023-04-01T00:00:31;100286.16;;;-2.01;100.00
41254;BME280;26987;59.928;30.306;2023-04-01T00:02:59;100287.28;;;-2.04;100.00
41254;BME280;26987;59.928;30.306;2023-04-01T00:05:27;100289.63;;;-2.01;100.00
41254;BME280;26987;59.928;30.306;2023-04-01T00:07:55;100283.41;;;-2.00;100.00
41254;BME280;26987;59.928;30.306;2023-04-01T00:10:22;100284.09;;;-1.98;100.00
41254;BME280;26987;59.928;30.306;2023-04-01T00:12:50;100268.19;;;-2.06;100.00
41254;BME280;26987;59.928;30.306;2023-04-01T00:15:18;100285.09;;;-1.99;100.00
41254;BME280;26987;59.928;30.306;2023-04-01T00:17:48;100273.59;;;-1.98;100.00
41254;BME280;26987;59.928;30.306;2023-04-01T00:20:16;100280.38;;;-1.95;100.00
41254;BME280;26987;59.928;30.306;2023-04-01T00:22:44;100277.19;;;-1.99;100.00
41254;BME280;26987;59.928;30.306;2023-04-01T00:25:12;100276.38;;;-1.99;100.00
41254;BME280;26987;59.928;30.306;2023-04-01T00:27:39;100274.56;;;-1.99;100.00
41254;BME280;26987;59.928;30.306;2023-04-01T00:30:09;100276.09;;;-1.96;100.00
41254;BME280;26987;59.928;30.306;2023-04-01T00:32:37;100280.50;;;-1.97;100.00
41254;BME280;26987;59.928;30.306;2023-04-01T00:35:07;100252.53;;;-2.18;100.00
41254;BME280;26987;59.928;30.306;2023-04-01T00:37:35;100278.16;;;-2.00;100.00
41254;BME280;26987;59.928;30.306;2023-04-01T00:40:05;100247.28;;;-2.18;100.00
41254;BME280;26987;59.928;30.306;2023-04-01T00:42:34;100276.22;;;-1.98;100.00
41254;BME280;26987;59.928;30.306;2023-04-01T00:45:23;100269.84;;;-1.95;100.00
41254;BME280;26987;59.928;30.306;2023-04-01T00:47:52;100275.78;;;-2.03;100.00
41254;BME280;26987;59.928;30.306;2023-04-01T00:50:23;100272.47;;;-2.05;100.00
41254;BME280;26987;59.928;30.306;2023-04-01T00:52:52;100271.50;;;-2.04;100.00
41254;BME280;26987;59.928;30.306;2023-04-01T00:55:21;100279.41;;;-2.04;100.00
41254;BME280;26987;59.928;30.306;2023-04-01T00:57:50;100277.31;;;-2.10;100.00
41254;BME280;26987;59.928;30.306;2023-04-01T01:00:20;100279.13;;;-2.11;100.00
41254;BME280;26987;59.928;30.306;2023-04-01T01:02:50;100269.56;;;-2.12;100.00
41254;BME280;26987;59.928;30.306;2023-04-01T01:05:23;100263.34;;;-2.11;100.00
41254;BME280;26987;59.928;30.306;2023-04-01T01:08:01;100266.66;;;-2.09;100.00
41254;BME280;26987;59.928;30.306;2023-04-01T01:10:33;100235.06;;;-2.38;100.00
41254;BME280;26987;59.928;30.306;2023-04-01T01:13:07;100250.47;;;-2.14;100.00
41254;BME280;26987;59.928;30.306;2023-04-01T01:15:41;100265.41;;;-2.14;100.00
41254;BME280;26987;59.928;30.306;2023-04-01T01:18:19;100255.59;;;-2.12;100.00
41254;BME280;26987;59.928;30.306;2023-04-01T01:21:12;100274.53;;;-2.09;100.00
41254;BME280;26987;59.928;30.306;2023-04-01T01:24:09;100252.81;;;-2.21;100.00
41254;BME280;26987;59.928;30.306;2023-04-01T01:26:48;100264.03;;;-2.09;100.00
41254;BME280;26987;59.928;30.306;2023-04-01T01:29:51;100261.13;;;-2.06;100.00
41254;BME280;26987;59.928;30.306;2023-04-01T01:32:38;100271.66;;;-2.06;100.00
41254;BME280;26987;59.928;30.306;2023-04-01T01:35:20;100263.34;;;-2.11;100.00
41254;BME280;26987;59.928;30.306;2023-04-01T01:37:52;100273.03;;;-2.11;100.00
41254;BME280;26987;59.928;30.306;2023-04-01T01:40:22;100265.97;;;-2.11;100.00
41254;BME280;26987;59.928;30.306;2023-04-01T01:42:54;100277.56;;;-2.13;100.00
41254;BME280;26987;59.928;30.306;2023-04-01T01:45:26;100266.78;;;-2.10;100.00
41254;BME280;26987;59.928;30.306;2023-04-01T01:47:55;100263.47;;;-2.12;100.00
41254;BME280;26987;59.928;30.306;2023-04-01T01:50:26;100238.94;;;-2.33;100.00
41254;BME280;26987;59.928;30.306;2023-04-01T01:53:04;100277.31;;;-2.10;100.00
41254;BME280;26987;59.928;30.306;2023-04-01T01:55:34;100269.69;;;-2.13;100.00
41254;BME280;26987;59.928;30.306;2023-04-01T01:58:07;100254.75;;;-2.13;100.00
41254;BME280;26987;59.928;30.306;2023-04-01T02:00:40;100268.19;;;-2.06;100.00
41254;BME280;26987;59.928;30.306;2023-04-01T02:03:12;100246.56;;;-2.20;100.00
41254;BME280;26987;59.928;30.306;2023-04-01T02:05:44;100267.91;;;-2.03;100.00
41254;BME280;26987;59.928;30.306;2023-04-01T02:08:14;100268.75;;;-2.03;100.00
41254;BME280;26987;59.928;30.306;2023-04-01T02:10:49;100253.25;;;-2.16;100.00
41254;BME280;26987;59.928;30.306;2023-04-01T02:13:27;100269.00;;;-2.06;100.00
41254;BME280;26987;59.928;30.306;2023-04-01T02:16:00;100273.03;;;-2.11;100.00
41254;BME280;26987;59.928;30.306;2023-04-01T02:18:33;100257.22;;;-2.21;100.00
41254;BME280;26987;59.928;30.306;2023-04-01T02:21:06;100254.19;;;-2.17;100.00
41254;BME280;26987;59.928;30.306;2023-04-01T02:23:36;100141.09;;;-2.96;100.00
41254;BME280;26987;59.928;30.306;2023-04-01T02:26:07;100185.25;;;-2.70;100.00
41254;BME280;26987;59.928;30.306;2023-04-01T02:28:37;100265.09;;;-2.21;100.00
41254;BME280;26987;59.928;30.306;2023-04-01T02:31:08;100271.63;;;-2.16;100.00
41254;BME280;26987;59.928;30.306;2023-04-01T02:33:39;100268.03;;;-2.14;100.00
41254;BME280;26987;59.928;30.306;2023-04-01T02:36:12;100265.28;;;-2.13;100.00
41254;BME280;26987;59.928;30.306;2023-04-01T02:38:42;100244.22;;;-2.23;100.00
41254;BME280;26987;59.928;30.306;2023-04-01T02:41:10;100266.66;;;-2.09;100.00
41254;BME280;26987;59.928;30.306;2023-04-01T02:43:38;100264.97;;;-2.20;100.00
41254;BME280;26987;59.928;30.306;2023-04-01T02:46:07;100273.16;;;-2.13;100.00
41254;BME280;26987;59.928;30.306;2023-04-01T02:48:34;100270.53;;;-2.13;100.00
41254;BME280;26987;59.928;30.306;2023-04-01T02:51:03;100281.88;;;-2.12;100.00
41254;BME280;26987;59.928;30.306;2023-04-01T02:53:32;100269.53;;;-2.22;100.00
41254;BME280;26987;59.928;30.306;2023-04-01T02:56:00;100272.31;;;-2.23;100.00
41254;BME280;26987;59.928;30.306;2023-04-01T02:58:28;100229.66;;;-2.47;100.00
41254;BME280;26987;59.928;30.306;2023-04-01T03:00:56;100275.59;;;-2.21;100.00
41254;BME280;26987;59.928;30.306;2023-04-01T03:03:24;100237.66;;;-2.48;100.00
41254;BME280;26987;59.928;30.306;2023-04-01T03:05:52;100275.47;;;-2.30;100.00
41254;BME280;26987;59.928;30.306;2023-04-01T03:08:22;100266.19;;;-2.34;100.00
41254;BME280;26987;59.928;30.306;2023-04-01T03:10:53;100269.81;;;-2.25;100.00
41254;BME280;26987;59.928;30.306;2023-04-01T03:13:21;100270.78;;;-2.26;100.00
41254;BME280;26987;59.928;30.306;2023-04-01T03:15:49;100269.38;;;-2.30;100.00
41254;BME280;26987;59.928;30.306;2023-04-01T03:18:17;100241.91;;;-2.57;100.00
41254;BME280;26987;59.928;30.306;2023-04-01T03:20:45;100276.44;;;-2.31;100.00
41254;BME280;26987;59.928;30.306;2023-04-01T03:23:13;100287.75;;;-2.30;100.00
41254;BME280;26987;59.928;30.306;2023-04-01T03:25:42;100278.09;;;-2.30;100.00
41254;BME280;26987;59.928;30.306;2023-04-01T03:28:12;100285.84;;;-2.28;100.00
41254;BME280;26987;59.928;30.306;2023-04-01T03:30:40;100286.81;;;-2.29;100.00
41254;BME280;26987;59.928;30.306;2023-04-01T03:33:09;100292.19;;;-2.31;100.00
41254;BME280;26987;59.928;30.306;2023-04-01T03:35:37;100287.88;;;-2.32;100.00
41254;BME280;26987;59.928;30.306;2023-04-01T03:38:06;100283.22;;;-2.28;100.00
41254;BME280;26987;59.928;30.306;2023-04-01T03:40:34;100295.75;;;-2.32;100.00
41254;BME280;26987;59.928;30.306;2023-04-01T03:43:03;100290.13;;;-2.27;100.00
41254;BME280;26987;59.928;30.306;2023-04-01T03:45:43;100302.13;;;-2.34;100.00
41254;BME280;26987;59.928;30.306;2023-04-01T03:48:14;100280.97;;;-2.43;100.00
41254;BME280;26987;59.928;30.306;2023-04-01T03:50:42;100296.88;;;-2.34;100.00
41254;BME280;26987;59.928;30.306;2023-04-01T03:53:11;100302.56;;;-2.29;100.00
41254;BME280;26987;59.928;30.306;2023-04-01T03:55:41;100297.72;;;-2.34;100.00
41254;BME280;26987;59.928;30.306;2023-04-01T03:58:09;100300.75;;;-2.29;100.00
41254;BME280;26987;59.928;30.306;2023-04-01T04:00:38;100294.63;;;-2.39;100.00
41254;BME280;26987;59.928;30.306;2023-04-01T04:03:07;100304.03;;;-2.36;100.00
41254;BME280;26987;59.928;30.306;2023-04-01T04:05:35;100295.75;;;-2.32;100.00
41254;BME280;26987;59.928;30.306;2023-04-01T04:08:04;100304.03;;;-2.36;100.00
41254;BME280;26987;59.928;30.306;2023-04-01T04:10:32;100304.75;;;-2.34;100.00
41254;BME280;26987;59.928;30.306;2023-04-01T04:13:01;100300.22;;;-2.32;100.00
41254;BME280;26987;59.928;30.306;2023-04-01T04:15:31;100291.03;;;-2.38;100.00
41254;BME280;26987;59.928;30.306;2023-04-01T04:18:00;100303.25;;;-2.27;100.00
41254;BME280;26987;59.928;30.306;2023-04-01T04:20:28;100310.44;;;-2.29;100.00
41254;BME280;26987;59.928;30.306;2023-04-01T04:22:56;100304.47;;;-2.31;100.00
41254;BME280;26987;59.928;30.306;2023-04-01T04:25:24;100297.19;;;-2.28;100.00
41254;BME280;26987;59.928;30.306;2023-04-01T04:27:52;100286.38;;;-2.34;100.00
41254;BME280;26987;59.928;30.306;2023-04-01T04:30:23;100293.44;;;-2.25;100.00
41254;BME280;26987;59.928;30.306;2023-04-01T04:32:51;100306.19;;;-2.20;100.00
41254;BME280;26987;59.928;30.306;2023-04-01T04:35:20;100307.19;;;-2.11;100.00
41254;BME280;26987;59.928;30.306;2023-04-01T04:37:48;100305.94;;;-2.07;100.00
41254;BME280;26987;59.928;30.306;2023-04-01T04:40:17;100304.03;;;-2.05;100.00
41254;BME280;26987;59.928;30.306;2023-04-01T04:42:45;100307.59;;;-2.06;100.00
41254;BME280;26987;59.928;30.306;2023-04-01T04:45:15;100311.91;;;-2.05;100.00
41254;BME280;26987;59.928;30.306;2023-04-01T04:47:52;100307.59;;;-2.06;100.00
41254;BME280;26987;59.928;30.306;2023-04-01T04:50:23;100294.88;;;-2.11;100.00
41254;BME280;26987;59.928;30.306;2023-04-01T04:52:51;100274.06;;;-2.34;100.00
41254;BME280;26987;59.928;30.306;2023-04-01T04:55:20;100305.28;;;-1.99;100.00
41254;BME280;26987;59.928;30.306;2023-04-01T04:57:55;100306.53;;;-1.94;100.00
41254;BME280;26987;59.928;30.306;2023-04-01T05:00:23;100309.16;;;-1.94;100.00
41254;BME280;26987;59.928;30.306;2023-04-01T05:02:58;100304.31;;;-1.88;100.00
41254;BME280;26987;59.928;30.306;2023-04-01T05:05:27;100310.56;;;-1.80;100.00
41254;BME280;26987;59.928;30.306;2023-04-01T05:07:55;100318.00;;;-1.85;100.00
41254;BME280;26987;59.928;30.306;2023-04-01T05:10:23;100311.25;;;-1.87;100.00
41254;BME280;26987;59.928;30.306;2023-04-01T05:12:51;100317.88;;;-1.83;100.00
41254;BME280;26987;59.928;30.306;2023-04-01T05:15:21;100302.50;;;-1.88;100.00
41254;BME280;26987;59.928;30.306;2023-04-01T05:17:49;100298.63;;;-1.94;100.00
41254;BME280;26987;59.928;30.306;2023-04-01T05:20:17;100305.13;;;-1.98;100.00
41254;BME280;26987;59.928;30.306;2023-04-01T05:22:46;100318.84;;;-1.84;100.00
41254;BME280;26987;59.928;30.306;2023-04-01T05:25:15;100322.16;;;-1.82;100.00
41254;BME280;26987;59.928;30.306;2023-04-01T05:27:42;100324.53;;;-1.79;100.00
41254;BME280;26987;59.928;30.306;2023-04-01T05:30:11;100314.28;;;-1.82;100.00
41254;BME280;26987;59.928;30.306;2023-04-01T05:32:58;100321.50;;;-1.74;100.00
41254;BME280;26987;59.928;30.306;2023-04-01T05:35:27;100337.97;;;-1.62;100.00
41254;BME280;26987;59.928;30.306;2023-04-01T05:37:56;100322.06;;;-1.71;100.00
41254;BME280;26987;59.928;30.306;2023-04-01T05:40:24;100311.50;;;-1.81;100.00
41254;BME280;26987;59.928;30.306;2023-04-01T05:42:52;100323.03;;;-1.72;100.00
41254;BME280;26987;59.928;30.306;2023-04-01T05:45:20;100324.97;;;-1.74;100.00
41254;BME280;26987;59.928;30.306;2023-04-01T05:48:06;100330.47;;;-1.67;100.00
41254;BME280;26987;59.928;30.306;2023-04-01T05:50:40;100333.69;;;-1.63;100.00
41254;BME280;26987;59.928;30.306;2023-04-01T05:53:11;100332.31;;;-1.68;100.00
41254;BME280;26987;59.928;30.306;2023-04-01T05:55:42;100333.81;;;-1.65;100.00
41254;BME280;26987;59.928;30.306;2023-04-01T05:58:10;100337.44;;;-1.66;100.00
41254;BME280;26987;59.928;30.306;2023-04-01T06:00:42;100331.88;;;-1.73;100.00
41254;BME280;26987;59.928;30.306;2023-04-01T06:03:11;100335.06;;;-1.59;100.00
41254;BME280;26987;59.928;30.306;2023-04-01T06:05:41;100334.53;;;-1.53;100.00
41254;BME280;26987;59.928;30.306;2023-04-01T06:08:15;100334.97;;;-1.48;100.00
41254;BME280;26987;59.928;30.306;2023-04-01T06:10:55;100270.84;;;-1.86;100.00
41254;BME280;26987;59.928;30.306;2023-04-01T06:13:36;100331.91;;;-1.43;100.00
41254;BME280;26987;59.928;30.306;2023-04-01T06:16:14;100338.97;;;-1.44;100.00
41254;BME280;26987;59.928;30.306;2023-04-01T06:19:01;100350.47;;;-1.35;100.00
41254;BME280;26987;59.928;30.306;2023-04-01T06:24:55;100349.91;;;-1.29;100.00
41254;BME280;26987;59.928;30.306;2023-04-01T06:27:39;100337.72;;;-1.30;100.00
41254;BME280;26987;59.928;30.306;2023-04-01T06:30:24;100345.50;;;-1.28;100.00
41254;BME280;26987;59.928;30.306;2023-04-01T06:33:09;100350.03;;;-1.20;100.00
41254;BME280;26987;59.928;30.306;2023-04-01T06:35:54;100347.56;;;-1.12;100.00
41254;BME280;26987;59.928;30.306;2023-04-01T06:38:41;100333.13;;;-1.08;100.00
41254;BME280;26987;59.928;30.306;2023-04-01T06:41:46;100341.44;;;-1.12;100.00
41254;BME280;26987;59.928;30.306;2023-04-01T06:44:29;100346.44;;;-1.09;100.00
41254;BME280;26987;59.928;30.306;2023-04-01T06:47:27;100345.47;;;-0.98;100.00
41254;BME280;26987;59.928;30.306;2023-04-01T06:50:40;100339.50;;;-0.91;100.00
41254;BME280;26987;59.928;30.306;2023-04-01T06:53:35;100338.94;;;-0.94;100.00
41254;BME280;26987;59.928;30.306;2023-04-01T06:56:45;100333.97;;;-1.07;100.00
41254;BME280;26987;59.928;30.306;2023-04-01T06:59:25;100368.03;;;-0.96;100.00
41254;BME280;26987;59.928;30.306;2023-04-01T07:01:58;100358.91;;;-1.02;100.00
41254;BME280;26987;59.928;30.306;2023-04-01T07:04:30;100351.28;;;-1.05;100.00
41254;BME280;26987;59.928;30.306;2023-04-01T07:07:00;100361.94;;;-1.06;100.00
41254;BME280;26987;59.928;30.306;2023-04-01T07:09:32;100355.03;;;-1.07;100.00
41254;BME280;26987;59.928;30.306;2023-04-01T07:12:30;100356.00;;;-0.98;100.00
41254;BME280;26987;59.928;30.306;2023-04-01T07:15:23;100370.66;;;-0.86;100.00
41254;BME280;26987;59.928;30.306;2023-04-01T07:17:56;100363.59;;;-0.85;100.00
41254;BME280;26987;59.928;30.306;2023-04-01T07:20:29;100369.97;;;-0.88;100.00
41254;BME280;26987;59.928;30.306;2023-04-01T07:23:00;100362.91;;;-0.87;100.00
41254;BME280;26987;59.928;30.306;2023-04-01T07:25:58;100372.47;;;-0.86;100.00
41254;BME280;26987;59.928;30.306;2023-04-01T07:28:52;100376.47;;;-0.82;100.00
41254;BME280;26987;59.928;30.306;2023-04-01T07:31:41;100373.44;;;-0.87;100.00
41254;BME280;26987;59.928;30.306;2023-04-01T07:34:17;100375.09;;;-0.96;100.00
41254;BME280;26987;59.928;30.306;2023-04-01T07:36:49;100374.41;;;-1.08;100.00
41254;BME280;26987;59.928;30.306;2023-04-01T07:39:30;100347.41;;;-1.30;100.00
41254;BME280;26987;59.928;30.306;2023-04-01T07:42:16;100383.72;;;-1.04;100.00
41254;BME280;26987;59.928;30.306;2023-04-01T07:44:56;100395.31;;;-1.07;100.00
41254;BME280;26987;59.928;30.306;2023-04-01T07:47:45;100384.94;;;-1.08;100.00
41254;BME280;26987;59.928;30.306;2023-04-01T07:50:22;100397.81;;;-1.05;100.00
41254;BME280;26987;59.928;30.306;2023-04-01T07:53:03;100386.19;;;-1.03;100.00
41254;BME280;26987;59.928;30.306;2023-04-01T07:55:40;100397.53;;;-1.02;100.00
41254;BME280;26987;59.928;30.306;2023-04-01T07:58:14;100398.91;;;-0.98;100.00
41254;BME280;26987;59.928;30.306;2023-04-01T08:00:51;100407.25;;;-1.03;100.00
41254;BME280;26987;59.928;30.306;2023-04-01T08:03:43;100404.75;;;-1.04;100.00
41254;BME280;26987;59.928;30.306;2023-04-01T08:06:20;100395.34;;;-1.17;100.00
41254;BME280;26987;59.928;30.306;2023-04-01T08:09:01;100421.38;;;-1.13;100.00
41254;BME280;26987;59.928;30.306;2023-04-01T08:11:52;100419.28;;;-1.10;100.00
41254;BME280;26987;59.928;30.306;2023-04-01T08:15:00;100416.53;;;-1.18;100.00
41254;BME280;26987;59.928;30.306;2023-04-01T08:17:45;100421.66;;;-1.17;100.00
41254;BME280;26987;59.928;30.306;2023-04-01T08:20:26;100423.72;;;-1.20;100.00
41254;BME280;26987;59.928;30.306;2023-04-01T08:22:59;100406.00;;;-1.28;100.00
41254;BME280;26987;59.928;30.306;2023-04-01T08:25:37;100423.44;;;-1.17;100.00
41254;BME280;26987;59.928;30.306;2023-04-01T08:28:12;100419.72;;;-1.15;100.00
41254;BME280;26987;59.928;30.306;2023-04-01T08:30:45;100411.66;;;-1.23;100.00
41254;BME280;26987;59.928;30.306;2023-04-01T08:33:22;100426.50;;;-1.02;100.00
41254;BME280;26987;59.928;30.306;2023-04-01T08:35:59;100420.84;;;-1.07;100.00
41254;BME280;26987;59.928;30.306;2023-04-01T08:38:31;100406.41;;;-1.03;100.00
41254;BME280;26987;59.928;30.306;2023-04-01T08:45:02;100421.09;;;-0.71;100.00
41254;BME280;26987;59.928;30.306;2023-04-01T08:47:46;100433.81;;;-0.66;100.00
41254;BME280;26987;59.928;30.306;2023-04-01T08:53:54;100434.78;;;-0.67;100.00
41254;BME280;26987;59.928;30.306;2023-04-01T08:56:34;100400.72;;;-0.89;100.00
41254;BME280;26987;59.928;30.306;2023-04-01T08:59:32;100429.09;;;-0.53;100.00
41254;BME280;26987;59.928;30.306;2023-04-01T09:02:39;100437.09;;;-0.34;100.00
41254;BME280;26987;59.928;30.306;2023-04-01T09:05:46;100443.16;;;-0.24;100.00
41254;BME280;26987;59.928;30.306;2023-04-01T09:08:27;100450.78;;;-0.21;100.00
41254;BME280;26987;59.928;30.306;2023-04-01T09:11:08;100455.13;;;-0.30;100.00
41254;BME280;26987;59.928;30.306;2023-04-01T09:14:23;100435.44;;;-0.35;100.00
41254;BME280;26987;59.928;30.306;2023-04-01T09:17:34;100447.78;;;-0.26;100.00
41254;BME280;26987;59.928;30.306;2023-04-01T09:23:21;100460.94;;;-0.26;100.00
41254;BME280;26987;59.928;30.306;2023-04-01T09:26:03;100455.44;;;-0.43;100.00
41254;BME280;26987;59.928;30.306;2023-04-01T09:28:42;100460.41;;;-0.40;100.00
41254;BME280;26987;59.928;30.306;2023-04-01T09:31:22;100451.41;;;-0.47;100.00
41254;BME280;26987;59.928;30.306;2023-04-01T09:34:41;100472.22;;;-0.44;100.00
41254;BME280;26987;59.928;30.306;2023-04-01T09:37:29;100473.72;;;-0.51;100.00
41254;BME280;26987;59.928;30.306;2023-04-01T09:40:22;100465.13;;;-0.43;100.00
41254;BME280;26987;59.928;30.306;2023-04-01T09:43:16;100457.94;;;-0.41;100.00
41254;BME280;26987;59.928;30.306;2023-04-01T09:45:56;100450.44;;;-0.46;100.00
41254;BME280;26987;59.928;30.306;2023-04-01T09:48:47;100470.97;;;-0.40;100.00
41254;BME280;26987;59.928;30.306;2023-04-01T09:51:27;100469.44;;;-0.42;100.00
41254;BME280;26987;59.928;30.306;2023-04-01T09:54:09;100464.00;;;-0.41;100.00
41254;BME280;26987;59.928;30.306;2023-04-01T09:57:02;100464.44;;;-0.35;100.00
41254;BME280;26987;59.928;30.306;2023-04-01T10:06:33;100475.16;;;-0.09;100.00
41254;BME280;26987;59.928;30.306;2023-04-01T10:18:59;100485.72;;;0.29;100.00
41254;BME280;26987;59.928;30.306;2023-04-01T10:21:56;100481.72;;;0.25;100.00
41254;BME280;26987;59.928;30.306;2023-04-01T10:27:55;100486.16;;;0.34;100.00
41254;BME280;26987;59.928;30.306;2023-04-01T10:31:35;100489.72;;;0.43;100.00
41254;BME280;26987;59.928;30.306;2023-04-01T10:34:33;100491.00;;;0.39;100.00
41254;BME280;26987;59.928;30.306;2023-04-01T10:37:16;100487.25;;;0.32;100.00
41254;BME280;26987;59.928;30.306;2023-04-01T10:43:35;100489.34;;;0.28;100.00
41254;BME280;26987;59.928;30.306;2023-04-01T10:49:41;100495.63;;;0.17;100.00
41254;BME280;26987;59.928;30.306;2023-04-01T10:56:10;100500.47;;;0.22;100.00
41254;BME280;26987;59.928;30.306;2023-04-01T10:59:32;100502.03;;;0.15;100.00
41254;BME280;26987;59.928;30.306;2023-04-01T11:03:02;100510.53;;;0.08;100.00
41254;BME280;26987;59.928;30.306;2023-04-01T11:12:33;100509.38;;;0.21;100.00
41254;BME280;26987;59.928;30.306;2023-04-01T11:18:41;100522.84;;;0.18;99.13
41254;BME280;26987;59.928;30.306;2023-04-01T11:21:42;100522.00;;;0.27;99.56
41254;BME280;26987;59.928;30.306;2023-04-01T11:27:55;100530.00;;;0.63;98.28
41254;BME280;26987;59.928;30.306;2023-04-01T11:30:59;100524.44;;;0.67;98.03
41254;BME280;26987;59.928;30.306;2023-04-01T11:33:35;100526.31;;;0.56;96.68
41254;BME280;26987;59.928;30.306;2023-04-01T11:36:20;100529.78;;;0.57;97.17
41254;BME280;26987;59.928;30.306;2023-04-01T11:39:03;100529.94;;;0.55;97.01
41254;BME280;26987;59.928;30.306;2023-04-01T11:42:00;100531.72;;;0.55;97.16
41254;BME280;26987;59.928;30.306;2023-04-01T11:44:56;100532.06;;;0.42;97.43
41254;BME280;26987;59.928;30.306;2023-04-01T11:47:58;100539.00;;;0.43;99.25
41254;BME280;26987;59.928;30.306;2023-04-01T11:50:43;100533.91;;;0.31;98.27
41254;BME280;26987;59.928;30.306;2023-04-01T11:53:28;100517.56;;;0.18;98.58
41254;BME280;26987;59.928;30.306;2023-04-01T11:56:09;100507.78;;;0.00;97.81
41254;BME280;26987;59.928;30.306;2023-04-01T11:59:18;100544.91;;;0.17;98.43
41254;BME280;26987;59.928;30.306;2023-04-01T12:01:59;100542.88;;;0.10;97.89
41254;BME280;26987;59.928;30.306;2023-04-01T12:07:50;100543.53;;;0.12;97.22
41254;BME280;26987;59.928;30.306;2023-04-01T12:10:28;100516.66;;;-0.01;96.87
41254;BME280;26987;59.928;30.306;2023-04-01T12:13:01;100509.72;;;-0.02;96.72
41254;BME280;26987;59.928;30.306;2023-04-01T12:15:38;100562.50;;;0.26;96.66
41254;BME280;26987;59.928;30.306;2023-04-01T12:18:16;100547.78;;;0.33;97.03
41254;BME280;26987;59.928;30.306;2023-04-01T12:20:54;100562.31;;;0.47;96.96
41254;BME280;26987;59.928;30.306;2023-04-01T12:23:46;100555.91;;;0.50;97.84
41254;BME280;26987;59.928;30.306;2023-04-01T12:26:26;100563.00;;;0.49;97.21
41254;BME280;26987;59.928;30.306;2023-04-01T12:29:09;100571.88;;;0.48;97.14
41254;BME280;26987;59.928;30.306;2023-04-01T12:31:50;100567.16;;;0.52;95.35
41254;BME280;26987;59.928;30.306;2023-04-01T12:34:49;100570.59;;;0.62;95.62
41254;BME280;26987;59.928;30.306;2023-04-01T12:37:33;100573.28;;;0.53;94.47
41254;BME280;26987;59.928;30.306;2023-04-01T12:40:24;100574.28;;;0.42;94.80
41254;BME280;26987;59.928;30.306;2023-04-01T12:43:07;100580.41;;;0.32;95.61
41254;BME280;26987;59.928;30.306;2023-04-01T12:45:43;100584.03;;;0.31;95.65
41254;BME280;26987;59.928;30.306;2023-04-01T12:48:26;100586.66;;;0.31;94.38
41254;BME280;26987;59.928;30.306;2023-04-01T12:51:29;100589.03;;;0.34;94.08
41254;BME280;26987;59.928;30.306;2023-04-01T12:54:34;100577.59;;;0.44;94.20
41254;BME280;26987;59.928;30.306;2023-04-01T12:57:31;100594.53;;;0.41;92.89
41254;BME280;26987;59.928;30.306;2023-04-01T13:00:17;100579.28;;;0.45;93.26
41254;BME280;26987;59.928;30.306;2023-04-01T13:03:01;100594.78;;;0.58;92.14
41254;BME280;26987;59.928;30.306;2023-04-01T13:05:44;100600.69;;;0.70;90.30
41254;BME280;26987;59.928;30.306;2023-04-01T13:08:31;100594.75;;;0.68;90.66
41254;BME280;26987;59.928;30.306;2023-04-01T13:11:09;100590.28;;;0.68;88.52
41254;BME280;26987;59.928;30.306;2023-04-01T13:14:17;100607.69;;;0.89;88.74
41254;BME280;26987;59.928;30.306;2023-04-01T13:16:48;100601.16;;;0.93;86.81
41254;BME280;26987;59.928;30.306;2023-04-01T13:19:25;100589.84;;;0.73;85.92
41254;BME280;26987;59.928;30.306;2023-04-01T13:22:04;100604.41;;;0.77;86.09
41254;BME280;26987;59.928;30.306;2023-04-01T13:24:42;100608.38;;;0.91;87.20
41254;BME280;26987;59.928;30.306;2023-04-01T13:27:17;100620.81;;;1.09;85.90
41254;BME280;26987;59.928;30.306;2023-04-01T13:29:57;100618.59;;;1.04;80.78
41254;BME280;26987;59.928;30.306;2023-04-01T13:32:33;100618.03;;;1.10;81.84
41254;BME280;26987;59.928;30.306;2023-04-01T13:35:14;100619.00;;;1.09;81.70
41254;BME280;26987;59.928;30.306;2023-04-01T13:37:53;100618.59;;;1.04;80.73
41254;BME280;26987;59.928;30.306;2023-04-01T13:40:34;100635.09;;;1.16;80.11
41254;BME280;26987;59.928;30.306;2023-04-01T13:43:13;100624.53;;;1.16;78.72
41254;BME280;26987;59.928;30.306;2023-04-01T13:45:57;100617.84;;;1.22;78.43
41254;BME280;26987;59.928;30.306;2023-04-01T13:48:37;100635.50;;;1.21;75.05
41254;BME280;26987;59.928;30.306;2023-04-01T13:51:29;100629.66;;;1.18;74.11
41254;BME280;26987;59.928;30.306;2023-04-01T13:57:07;100642.78;;;1.09;73.99
41254;BME280;26987;59.928;30.306;2023-04-01T13:59:59;100651.22;;;1.13;73.43
41254;BME280;26987;59.928;30.306;2023-04-01T14:02:45;100636.00;;;0.97;72.14
41254;BME280;26987;59.928;30.306;2023-04-01T14:05:32;100633.44;;;0.87;72.54
41254;BME280;26987;59.928;30.306;2023-04-01T14:08:09;100649.91;;;0.99;73.09
41254;BME280;26987;59.928;30.306;2023-04-01T14:10:45;100647.16;;;0.91;70.98
41254;BME280;26987;59.928;30.306;2023-04-01T14:13:23;100651.84;;;0.97;71.57
41254;BME280;26987;59.928;30.306;2023-04-01T14:16:05;100646.19;;;0.92;71.33
41254;BME280;26987;59.928;30.306;2023-04-01T14:18:57;100647.13;;;1.00;71.18
41254;BME280;26987;59.928;30.306;2023-04-01T14:21:33;100657.88;;;0.89;68.91
41254;BME280;26987;59.928;30.306;2023-04-01T14:24:18;100659.97;;;0.85;63.55
41254;BME280;26987;59.928;30.306;2023-04-01T14:29:50;100669.41;;;0.88;64.12
41254;BME280;26987;59.928;30.306;2023-04-01T14:32:34;100676.19;;;0.91;63.03
41254;BME280;26987;59.928;30.306;2023-04-01T14:35:22;100667.47;;;0.80;59.59
41254;BME280;26987;59.928;30.306;2023-04-01T14:38:05;100672.19;;;0.86;62.64
41254;BME280;26987;59.928;30.306;2023-04-01T14:40:49;100676.63;;;0.96;61.41